sensor_id;sensor_type;location;lat;lon;timestamp;pressure;altitude;pressure_sealevel;temperature;humidity
24788;BME280;12883;52.662;5.196;2023-04-30T00:01:36;102500.00;;;9.51;100.00
24788;BME280;12883;52.662;5.196;2023-04-30T00:04:01;102485.16;;;8.69;100.00
24788;BME280;12883;52.662;5.196;2023-04-30T00:06:26;102485.72;;;8.63;100.00
24788;BME280;12883;52.662;5.196;2023-04-30T00:08:52;102486.06;;;8.51;100.00
24788;BME280;12883;52.662;5.196;2023-04-30T00:11:17;102484.44;;;8.40;100.00
24788;BME280;12883;52.662;5.196;2023-04-30T00:13:42;102476.59;;;8.48;100.00
24788;BME280;12883;52.662;5.196;2023-04-30T00:16:08;102469.13;;;8.34;100.00
24788;BME280;12883;52.662;5.196;2023-04-30T00:18:33;102476.63;;;8.39;100.00
24788;BME280;12883;52.662;5.196;2023-04-30T00:20:59;102463.84;;;8.34;100.00
24788;BME280;12883;52.662;5.196;2023-04-30T00:23:24;102468.56;;;8.40;100.00
24788;BME280;12883;52.662;5.196;2023-04-30T00:25:49;102476.50;;;8.40;100.00
24788;BME280;12883;52.662;5.196;2023-04-30T00:28:15;102469.13;;;8.44;100.00
24788;BME280;12883;52.662;5.196;2023-04-30T00:30:40;102472.75;;;8.43;100.00
24788;BME280;12883;52.662;5.196;2023-04-30T00:33:05;102413.69;;;8.06;100.00
24788;BME280;12883;52.662;5.196;2023-04-30T00:35:31;102470.53;;;8.38;100.00
24788;BME280;12883;52.662;5.196;2023-04-30T00:37:56;102468.56;;;8.40;100.00
24788;BME280;12883;52.662;5.196;2023-04-30T00:40:21;102474.44;;;8.34;100.00
24788;BME280;12883;52.662;5.196;2023-04-30T00:42:47;102475.41;;;8.33;100.00
24788;BME280;12883;52.662;5.196;2023-04-30T00:45:13;102466.09;;;8.29;100.00
24788;BME280;12883;52.662;5.196;2023-04-30T00:47:38;102485.94;;;9.68;100.00
24788;BME280;12883;52.662;5.196;2023-04-30T00:50:04;102495.13;;;11.09;100.00
24788;BME280;12883;52.662;5.196;2023-04-30T00:52:30;102507.06;;;12.10;100.00
24788;BME280;12883;52.662;5.196;2023-04-30T00:54:55;102509.97;;;12.63;100.00
24788;BME280;12883;52.662;5.196;2023-04-30T00:57:21;102513.53;;;12.94;100.00
24788;BME280;12883;52.662;5.196;2023-04-30T00:59:47;102465.16;;;12.75;100.00
24788;BME280;12883;52.662;5.196;2023-04-30T01:02:12;102499.25;;;9.41;100.00
24788;BME280;12883;52.662;5.196;2023-04-30T01:04:38;102482.34;;;8.80;100.00
24788;BME280;12883;52.662;5.196;2023-04-30T01:07:04;102485.88;;;8.71;100.00
24788;BME280;12883;52.662;5.196;2023-04-30T01:09:30;102478.19;;;8.68;100.00
24788;BME280;12883;52.662;5.196;2023-04-30T01:15:18;102473.22;;;8.65;100.00
24788;BME280;12883;52.662;5.196;2023-04-30T01:18:17;102473.34;;;8.64;100.00
24788;BME280;12883;52.662;5.196;2023-04-30T01:20:49;102469.59;;;8.66;100.00
24788;BME280;12883;52.662;5.196;2023-04-30T01:26:19;102485.22;;;8.50;100.00
24788;BME280;12883;52.662;5.196;2023-04-30T01:28:48;102469.97;;;8.44;100.00
24788;BME280;12883;52.662;5.196;2023-04-30T01:31:17;102470.53;;;8.38;100.00
24788;BME280;12883;52.662;5.196;2023-04-30T01:33:43;102473.75;;;8.32;100.00
24788;BME280;12883;52.662;5.196;2023-04-30T01:36:19;102461.06;;;8.36;100.00
24788;BME280;12883;52.662;5.196;2023-04-30T01:44:42;102467.50;;;8.24;100.00
24788;BME280;12883;52.662;5.196;2023-04-30T01:49:57;102484.38;;;10.85;100.00
24788;BME280;12883;52.662;5.196;2023-04-30T01:55:13;102497.56;;;12.40;100.00
24788;BME280;12883;52.662;5.196;2023-04-30T01:57:47;102503.94;;;12.77;100.00
24788;BME280;12883;52.662;5.196;2023-04-30T02:00:16;102498.56;;;11.59;100.00
24788;BME280;12883;52.662;5.196;2023-04-30T02:02:42;102495.66;;;8.88;100.00
24788;BME280;12883;52.662;5.196;2023-04-30T02:05:07;102492.38;;;8.40;100.00
24788;BME280;12883;52.662;5.196;2023-04-30T02:07:38;102480.03;;;8.22;100.00
24788;BME280;12883;52.662;5.196;2023-04-30T02:10:06;102493.94;;;8.14;100.00
24788;BME280;12883;52.662;5.196;2023-04-30T02:12:31;102486.72;;;8.07;100.00
24788;BME280;12883;52.662;5.196;2023-04-30T02:14:56;102465.16;;;7.92;100.00
24788;BME280;12883;52.662;5.196;2023-04-30T02:17:22;102477.41;;;7.93;100.00
24788;BME280;12883;52.662;5.196;2023-04-30T02:19:47;102470.75;;;7.89;100.00
24788;BME280;12883;52.662;5.196;2023-04-30T02:22:12;102469.66;;;7.92;100.00
24788;BME280;12883;52.662;5.196;2023-04-30T02:24:38;102461.19;;;7.79;100.00
24788;BME280;12883;52.662;5.196;2023-04-30T02:27:03;102476.47;;;7.85;100.00
24788;BME280;12883;52.662;5.196;2023-04-30T02:29:28;102405.84;;;7.39;100.00
24788;BME280;12883;52.662;5.196;2023-04-30T02:31:57;102435.03;;;7.57;100.00
24788;BME280;12883;52.662;5.196;2023-04-30T02:34:22;102457.84;;;7.67;100.00
24788;BME280;12883;52.662;5.196;2023-04-30T02:36:49;102461.44;;;7.66;100.00
24788;BME280;12883;52.662;5.196;2023-04-30T02:39:14;102458.09;;;7.64;100.00
24788;BME280;12883;52.662;5.196;2023-04-30T02:41:39;102465.78;;;7.67;100.00
24788;BME280;12883;52.662;5.196;2023-04-30T02:44:05;102463.13;;;7.67;100.00
24788;BME280;12883;52.662;5.196;2023-04-30T02:46:30;102471.25;;;8.12;100.00
24788;BME280;12883;52.662;5.196;2023-04-30T02:48:55;102464.84;;;9.84;100.00
24788;BME280;12883;52.662;5.196;2023-04-30T02:51:21;102466.03;;;10.99;100.00
24788;BME280;12883;52.662;5.196;2023-04-30T02:53:46;102447.03;;;11.52;100.00
24788;BME280;12883;52.662;5.196;2023-04-30T02:56:11;102489.59;;;12.32;100.00
24788;BME280;12883;52.662;5.196;2023-04-30T02:58:37;102495.78;;;12.71;100.00
24788;BME280;12883;52.662;5.196;2023-04-30T03:01:02;102475.03;;;9.71;100.00
24788;BME280;12883;52.662;5.196;2023-04-30T03:03:27;102452.06;;;8.10;100.00
24788;BME280;12883;52.662;5.196;2023-04-30T03:05:53;102436.53;;;7.78;100.00
24788;BME280;12883;52.662;5.196;2023-04-30T03:08:20;102439.34;;;7.67;100.00
24788;BME280;12883;52.662;5.196;2023-04-30T03:10:46;102439.19;;;7.69;100.00
24788;BME280;12883;52.662;5.196;2023-04-30T03:13:11;102437.66;;;7.66;100.00
24788;BME280;12883;52.662;5.196;2023-04-30T03:15:36;102444.47;;;7.69;100.00
24788;BME280;12883;52.662;5.196;2023-04-30T03:18:02;102441.03;;;7.68;100.00
24788;BME280;12883;52.662;5.196;2023-04-30T03:20:28;102371.94;;;7.25;100.00
24788;BME280;12883;52.662;5.196;2023-04-30T03:22:53;102438.63;;;7.65;100.00
24788;BME280;12883;52.662;5.196;2023-04-30T03:25:19;102444.22;;;7.62;100.00
24788;BME280;12883;52.662;5.196;2023-04-30T03:27:44;102420.31;;;7.45;100.00
24788;BME280;12883;52.662;5.196;2023-04-30T03:30:09;102435.19;;;7.46;100.00
24788;BME280;12883;52.662;5.196;2023-04-30T03:32:35;102429.47;;;7.50;100.00
24788;BME280;12883;52.662;5.196;2023-04-30T03:35:00;102399.19;;;7.35;100.00
24788;BME280;12883;52.662;5.196;2023-04-30T03:37:25;102428.63;;;7.50;100.00
24788;BME280;12883;52.662;5.196;2023-04-30T03:39:51;102424.34;;;7.49;100.00
24788;BME280;12883;52.662;5.196;2023-04-30T03:42:16;102424.19;;;7.50;100.00
24788;BME280;12883;52.662;5.196;2023-04-30T03:44:41;102428.25;;;7.45;100.00
24788;BME280;12883;52.662;5.196;2023-04-30T03:47:07;102445.72;;;8.49;100.00
24788;BME280;12883;52.662;5.196;2023-04-30T03:49:32;102446.00;;;10.12;100.00
24788;BME280;12883;52.662;5.196;2023-04-30T03:51:58;102450.31;;;11.14;100.00
24788;BME280;12883;52.662;5.196;2023-04-30T03:54:23;102455.38;;;11.81;100.00
24788;BME280;12883;52.662;5.196;2023-04-30T03:56:48;102407.47;;;11.89;100.00
24788;BME280;12883;52.662;5.196;2023-04-30T03:59:14;102462.56;;;12.51;100.00
24788;BME280;12883;52.662;5.196;2023-04-30T04:01:39;102459.38;;;8.98;100.00
24788;BME280;12883;52.662;5.196;2023-04-30T04:04:05;102445.25;;;8.07;100.00
24788;BME280;12883;52.662;5.196;2023-04-30T04:06:30;102446.44;;;7.76;100.00
24788;BME280;12883;52.662;5.196;2023-04-30T04:08:56;102435.31;;;7.73;100.00
24788;BME280;12883;52.662;5.196;2023-04-30T04:11:21;102444.06;;;7.73;100.00
24788;BME280;12883;52.662;5.196;2023-04-30T04:13:46;102447.00;;;7.70;100.00
24788;BME280;12883;52.662;5.196;2023-04-30T04:16:12;102446.84;;;7.62;100.00
24788;BME280;12883;52.662;5.196;2023-04-30T04:18:37;102450.19;;;7.55;100.00
24788;BME280;12883;52.662;5.196;2023-04-30T04:21:02;102415.03;;;7.35;100.00
24788;BME280;12883;52.662;5.196;2023-04-30T04:23:28;102456.56;;;7.52;100.00
24788;BME280;12883;52.662;5.196;2023-04-30T04:25:53;102456.72;;;7.41;100.00
24788;BME280;12883;52.662;5.196;2023-04-30T04:28:19;102452.81;;;7.36;100.00
24788;BME280;12883;52.662;5.196;2023-04-30T04:30:45;102458.41;;;7.42;100.00
24788;BME280;12883;52.662;5.196;2023-04-30T04:33:10;102449.34;;;7.35;100.00
24788;BME280;12883;52.662;5.196;2023-04-30T04:35:36;102455.06;;;7.40;100.00
24788;BME280;12883;52.662;5.196;2023-04-30T04:38:02;102458.81;;;7.38;100.00
24788;BME280;12883;52.662;5.196;2023-04-30T04:40:28;102462.69;;;7.43;100.00
24788;BME280;12883;52.662;5.196;2023-04-30T04:42:54;102459.75;;;7.46;100.00
24788;BME280;12883;52.662;5.196;2023-04-30T04:45:19;102465.34;;;7.53;100.00
24788;BME280;12883;52.662;5.196;2023-04-30T04:47:45;102490.47;;;8.96;100.00
24788;BME280;12883;52.662;5.196;2023-04-30T04:50:11;102476.78;;;10.23;100.00
24788;BME280;12883;52.662;5.196;2023-04-30T04:52:37;102501.47;;;11.24;100.00
24788;BME280;12883;52.662;5.196;2023-04-30T04:55:03;102509.91;;;11.85;100.00
24788;BME280;12883;52.662;5.196;2023-04-30T04:57:29;102514.88;;;12.28;100.00
24788;BME280;12883;52.662;5.196;2023-04-30T04:59:54;102505.09;;;11.88;100.00
24788;BME280;12883;52.662;5.196;2023-04-30T05:02:19;102509.63;;;8.81;100.00
24788;BME280;12883;52.662;5.196;2023-04-30T05:04:47;102503.63;;;8.42;100.00
24788;BME280;12883;52.662;5.196;2023-04-30T05:07:15;102455.97;;;8.06;100.00
24788;BME280;12883;52.662;5.196;2023-04-30T05:09:41;102495.34;;;8.28;100.00
24788;BME280;12883;52.662;5.196;2023-04-30T05:12:06;102486.66;;;8.35;100.00
24788;BME280;12883;52.662;5.196;2023-04-30T05:14:31;102488.88;;;8.40;100.00
24788;BME280;12883;52.662;5.196;2023-04-30T05:16:57;102485.28;;;8.41;100.00
24788;BME280;12883;52.662;5.196;2023-04-30T05:19:22;102478.28;;;8.49;100.00
24788;BME280;12883;52.662;5.196;2023-04-30T05:21:47;102470.22;;;8.41;100.00
24788;BME280;12883;52.662;5.196;2023-04-30T05:24:13;102484.38;;;8.59;100.00
24788;BME280;12883;52.662;5.196;2023-04-30T05:26:38;102482.06;;;8.74;100.00
24788;BME280;12883;52.662;5.196;2023-04-30T05:29:03;102485.06;;;8.88;100.00
24788;BME280;12883;52.662;5.196;2023-04-30T05:31:29;102481.94;;;9.02;100.00
24788;BME280;12883;52.662;5.196;2023-04-30T05:33:56;102428.28;;;8.83;100.00
24788;BME280;12883;52.662;5.196;2023-04-30T05:36:21;102483.03;;;9.27;100.00
24788;BME280;12883;52.662;5.196;2023-04-30T05:38:47;102475.56;;;9.40;100.00
24788;BME280;12883;52.662;5.196;2023-04-30T05:41:12;102473.44;;;9.43;100.00
24788;BME280;12883;52.662;5.196;2023-04-30T05:43:37;102475.69;;;9.55;100.00
24788;BME280;12883;52.662;5.196;2023-04-30T05:46:02;102491.38;;;9.84;100.00
24788;BME280;12883;52.662;5.196;2023-04-30T05:48:29;102494.22;;;11.50;100.00
24788;BME280;12883;52.662;5.196;2023-04-30T05:50:55;102501.81;;;12.73;100.00
24788;BME280;12883;52.662;5.196;2023-04-30T05:53:20;102509.78;;;13.50;100.00
24788;BME280;12883;52.662;5.196;2023-04-30T05:55:45;102510.63;;;14.10;100.00
24788;BME280;12883;52.662;5.196;2023-04-30T05:58:11;102533.41;;;14.57;100.00
24788;BME280;12883;52.662;5.196;2023-04-30T06:00:36;102517.84;;;12.49;100.00
24788;BME280;12883;52.662;5.196;2023-04-30T06:03:03;102501.13;;;10.77;100.00
24788;BME280;12883;52.662;5.196;2023-04-30T06:05:28;102487.06;;;10.51;100.00
24788;BME280;12883;52.662;5.196;2023-04-30T06:07:54;102492.22;;;10.53;100.00
24788;BME280;12883;52.662;5.196;2023-04-30T06:10:19;102496.00;;;10.50;100.00
24788;BME280;12883;52.662;5.196;2023-04-30T06:12:45;102499.66;;;10.49;100.00
24788;BME280;12883;52.662;5.196;2023-04-30T06:15:10;102486.34;;;10.41;100.00
24788;BME280;12883;52.662;5.196;2023-04-30T06:17:35;102497.19;;;10.56;100.00
24788;BME280;12883;52.662;5.196;2023-04-30T06:20:01;102499.38;;;10.60;100.00
24788;BME280;12883;52.662;5.196;2023-04-30T06:22:31;102490.59;;;10.60;100.00
24788;BME280;12883;52.662;5.196;2023-04-30T06:24:56;102502.09;;;10.68;100.00
24788;BME280;12883;52.662;5.196;2023-04-30T06:27:22;102499.63;;;10.75;100.00
24788;BME280;12883;52.662;5.196;2023-04-30T06:29:47;102503.16;;;10.83;100.00
24788;BME280;12883;52.662;5.196;2023-04-30T06:32:12;102502.66;;;10.80;100.00
24788;BME280;12883;52.662;5.196;2023-04-30T06:34:38;102507.31;;;10.86;100.00
24788;BME280;12883;52.662;5.196;2023-04-30T06:37:03;102513.19;;;10.97;100.00
24788;BME280;12883;52.662;5.196;2023-04-30T06:39:28;102503.31;;;10.82;100.00
24788;BME280;12883;52.662;5.196;2023-04-30T06:41:54;102518.50;;;10.97;100.00
24788;BME280;12883;52.662;5.196;2023-04-30T06:44:20;102518.50;;;11.05;100.00
24788;BME280;12883;52.662;5.196;2023-04-30T06:46:45;102548.81;;;11.78;100.00
24788;BME280;12883;52.662;5.196;2023-04-30T06:49:10;102555.88;;;13.36;100.00
24788;BME280;12883;52.662;5.196;2023-04-30T06:51:36;102565.34;;;14.51;100.00
24788;BME280;12883;52.662;5.196;2023-04-30T06:54:01;102567.31;;;15.29;100.00
24788;BME280;12883;52.662;5.196;2023-04-30T06:56:26;102560.22;;;15.71;100.00
24788;BME280;12883;52.662;5.196;2023-04-30T06:58:52;102556.91;;;16.32;100.00
24788;BME280;12883;52.662;5.196;2023-04-30T07:01:17;102555.88;;;12.89;100.00
24788;BME280;12883;52.662;5.196;2023-04-30T07:03:42;102545.84;;;11.97;100.00
24788;BME280;12883;52.662;5.196;2023-04-30T07:06:08;102550.94;;;11.66;100.00
24788;BME280;12883;52.662;5.196;2023-04-30T07:08:33;102538.06;;;11.54;100.00
24788;BME280;12883;52.662;5.196;2023-04-30T07:10:59;102545.44;;;11.68;100.00
24788;BME280;12883;52.662;5.196;2023-04-30T07:13:24;102549.09;;;11.59;100.00
24788;BME280;12883;52.662;5.196;2023-04-30T07:15:50;102548.28;;;11.66;100.00
24788;BME280;12883;52.662;5.196;2023-04-30T07:18:15;102551.13;;;11.73;100.00
24788;BME280;12883;52.662;5.196;2023-04-30T07:20:41;102553.63;;;11.74;100.00
24788;BME280;12883;52.662;5.196;2023-04-30T07:23:06;102550.13;;;11.82;100.00
24788;BME280;12883;52.662;5.196;2023-04-30T07:25:32;102557.63;;;11.94;100.00
24788;BME280;12883;52.662;5.196;2023-04-30T07:27:58;102558.28;;;11.80;100.00
24788;BME280;12883;52.662;5.196;2023-04-30T07:30:23;102563.09;;;11.85;100.00
24788;BME280;12883;52.662;5.196;2023-04-30T07:32:49;102561.44;;;11.92;100.00
24788;BME280;12883;52.662;5.196;2023-04-30T07:35:14;102565.63;;;11.86;100.00
24788;BME280;12883;52.662;5.196;2023-04-30T07:37:40;102558.28;;;11.88;100.00
24788;BME280;12883;52.662;5.196;2023-04-30T07:40:08;102558.47;;;12.03;100.00
24788;BME280;12883;52.662;5.196;2023-04-30T07:42:40;102562.13;;;12.18;100.00
24788;BME280;12883;52.662;5.196;2023-04-30T07:45:09;102530.53;;;11.99;100.00
24788;BME280;12883;52.662;5.196;2023-04-30T07:47:35;102577.47;;;13.41;100.00
24788;BME280;12883;52.662;5.196;2023-04-30T07:50:00;102582.63;;;14.91;100.00
24788;BME280;12883;52.662;5.196;2023-04-30T07:52:26;102586.38;;;15.69;100.00
24788;BME280;12883;52.662;5.196;2023-04-30T07:54:51;102540.16;;;16.03;100.00
24788;BME280;12883;52.662;5.196;2023-04-30T07:57:16;102581.19;;;16.79;100.00
24788;BME280;12883;52.662;5.196;2023-04-30T07:59:42;102575.97;;;17.05;100.00
24788;BME280;12883;52.662;5.196;2023-04-30T08:02:07;102569.25;;;13.20;100.00
24788;BME280;12883;52.662;5.196;2023-04-30T08:04:33;102575.41;;;12.66;100.00
24788;BME280;12883;52.662;5.196;2023-04-30T08:06:59;102555.78;;;12.35;100.00
24788;BME280;12883;52.662;5.196;2023-04-30T08:09:26;102563.09;;;12.41;100.00
24788;BME280;12883;52.662;5.196;2023-04-30T08:11:51;102568.28;;;12.34;100.00
24788;BME280;12883;52.662;5.196;2023-04-30T08:14:17;102558.44;;;12.35;100.00
24788;BME280;12883;52.662;5.196;2023-04-30T08:16:43;102568.59;;;12.39;100.00
24788;BME280;12883;52.662;5.196;2023-04-30T08:19:08;102551.78;;;12.23;100.00
24788;BME280;12883;52.662;5.196;2023-04-30T08:21:34;102565.13;;;12.39;100.00
24788;BME280;12883;52.662;5.196;2023-04-30T08:24:00;102562.75;;;12.44;100.00
24788;BME280;12883;52.662;5.196;2023-04-30T08:26:25;102570.94;;;12.42;100.00
24788;BME280;12883;52.662;5.196;2023-04-30T08:28:51;102562.25;;;12.56;100.00
24788;BME280;12883;52.662;5.196;2023-04-30T08:31:16;102561.75;;;12.61;100.00
24788;BME280;12883;52.662;5.196;2023-04-30T08:33:42;102539.81;;;12.43;100.00
24788;BME280;12883;52.662;5.196;2023-04-30T08:36:07;102564.75;;;12.58;100.00
24788;BME280;12883;52.662;5.196;2023-04-30T08:38:32;102564.41;;;12.69;100.00
24788;BME280;12883;52.662;5.196;2023-04-30T08:41:11;102565.06;;;12.63;100.00
24788;BME280;12883;52.662;5.196;2023-04-30T08:43:37;102564.06;;;12.64;100.00
24788;BME280;12883;52.662;5.196;2023-04-30T08:46:04;102567.38;;;12.82;100.00
24788;BME280;12883;52.662;5.196;2023-04-30T08:48:30;102561.31;;;14.55;100.00
24788;BME280;12883;52.662;5.196;2023-04-30T08:51:01;102586.63;;;15.95;100.00
24788;BME280;12883;52.662;5.196;2023-04-30T08:53:28;102589.88;;;16.81;100.00
24788;BME280;12883;52.662;5.196;2023-04-30T08:55:54;102586.44;;;17.34;100.00
24788;BME280;12883;52.662;5.196;2023-04-30T08:58:20;102584.78;;;17.74;100.00
24788;BME280;12883;52.662;5.196;2023-04-30T09:00:45;102507.78;;;14.91;100.00
24788;BME280;12883;52.662;5.196;2023-04-30T09:03:11;102571.59;;;13.53;100.00
24788;BME280;12883;52.662;5.196;2023-04-30T09:05:36;102566.56;;;13.28;100.00
24788;BME280;12883;52.662;5.196;2023-04-30T09:08:02;102562.44;;;13.17;100.00
24788;BME280;12883;52.662;5.196;2023-04-30T09:10:31;102564.88;;;13.27;100.00
24788;BME280;12883;52.662;5.196;2023-04-30T09:13:03;102552.97;;;13.15;100.00
24788;BME280;12883;52.662;5.196;2023-04-30T09:15:30;102556.81;;;13.12;100.00
24788;BME280;12883;52.662;5.196;2023-04-30T09:18:10;102562.63;;;13.16;100.00
24788;BME280;12883;52.662;5.196;2023-04-30T09:20:36;102561.78;;;13.46;100.00
24788;BME280;12883;52.662;5.196;2023-04-30T09:23:07;102565.56;;;13.29;100.00
24788;BME280;12883;52.662;5.196;2023-04-30T09:25:42;102565.38;;;13.30;100.00
24788;BME280;12883;52.662;5.196;2023-04-30T09:28:12;102555.34;;;13.40;100.00
24788;BME280;12883;52.662;5.196;2023-04-30T09:30:38;102555.97;;;13.42;100.00
24788;BME280;12883;52.662;5.196;2023-04-30T09:33:04;102569.53;;;13.33;100.00
24788;BME280;12883;52.662;5.196;2023-04-30T09:35:31;102567.00;;;13.39;100.00
24788;BME280;12883;52.662;5.196;2023-04-30T09:38:01;102542.00;;;13.40;100.00
24788;BME280;12883;52.662;5.196;2023-04-30T09:40:40;102556.50;;;13.38;100.00
24788;BME280;12883;52.662;5.196;2023-04-30T09:43:06;102550.81;;;13.41;100.00
24788;BME280;12883;52.662;5.196;2023-04-30T09:45:39;102560.13;;;13.45;100.00
24788;BME280;12883;52.662;5.196;2023-04-30T09:48:05;102570.66;;;15.02;100.00
24788;BME280;12883;52.662;5.196;2023-04-30T09:50:37;102557.66;;;16.26;100.00
24788;BME280;12883;52.662;5.196;2023-04-30T09:53:07;102571.94;;;17.22;100.00
24788;BME280;12883;52.662;5.196;2023-04-30T09:55:34;102566.97;;;17.66;100.00
24788;BME280;12883;52.662;5.196;2023-04-30T09:58:03;102572.81;;;17.83;100.00
24788;BME280;12883;52.662;5.196;2023-04-30T10:00:29;102540.38;;;16.29;100.00
24788;BME280;12883;52.662;5.196;2023-04-30T10:02:57;102549.41;;;14.28;100.00
24788;BME280;12883;52.662;5.196;2023-04-30T10:05:24;102550.34;;;13.90;100.00
24788;BME280;12883;52.662;5.196;2023-04-30T10:07:51;102543.25;;;13.83;100.00
24788;BME280;12883;52.662;5.196;2023-04-30T10:10:17;102541.22;;;13.85;100.00
24788;BME280;12883;52.662;5.196;2023-04-30T10:12:50;102535.03;;;13.84;100.00
24788;BME280;12883;52.662;5.196;2023-04-30T10:15:24;102541.22;;;13.85;100.00
24788;BME280;12883;52.662;5.196;2023-04-30T10:17:58;102532.59;;;13.75;100.00
24788;BME280;12883;52.662;5.196;2023-04-30T10:20:25;102532.66;;;13.67;100.00
24788;BME280;12883;52.662;5.196;2023-04-30T10:22:52;102525.66;;;13.66;100.00
24788;BME280;12883;52.662;5.196;2023-04-30T10:25:18;102524.72;;;13.81;100.00
24788;BME280;12883;52.662;5.196;2023-04-30T10:27:44;102515.47;;;13.92;100.00
24788;BME280;12883;52.662;5.196;2023-04-30T10:30:10;102535.50;;;13.88;100.00
24788;BME280;12883;52.662;5.196;2023-04-30T10:35:29;102522.22;;;14.02;100.00
24788;BME280;12883;52.662;5.196;2023-04-30T10:38:11;102513.56;;;14.00;100.00
24788;BME280;12883;52.662;5.196;2023-04-30T10:40:39;102520.75;;;14.00;100.00
24788;BME280;12883;52.662;5.196;2023-04-30T10:43:04;102519.38;;;14.04;100.00
24788;BME280;12883;52.662;5.196;2023-04-30T10:45:35;102527.78;;;14.15;100.00
24788;BME280;12883;52.662;5.196;2023-04-30T10:48:02;102527.03;;;15.66;100.00
24788;BME280;12883;52.662;5.196;2023-04-30T10:50:31;102521.09;;;17.01;100.00
24788;BME280;12883;52.662;5.196;2023-04-30T10:53:03;102500.47;;;17.68;100.00
24788;BME280;12883;52.662;5.196;2023-04-30T10:55:30;102527.59;;;18.25;95.56
24788;BME280;12883;52.662;5.196;2023-04-30T10:57:57;102520.97;;;18.60;90.42
24788;BME280;12883;52.662;5.196;2023-04-30T11:00:28;102489.22;;;16.85;86.12
24788;BME280;12883;52.662;5.196;2023-04-30T11:03:01;102446.44;;;14.55;100.00
24788;BME280;12883;52.662;5.196;2023-04-30T11:05:37;102490.94;;;14.48;100.00
24788;BME280;12883;52.662;5.196;2023-04-30T11:08:04;102450.53;;;14.14;100.00
24788;BME280;12883;52.662;5.196;2023-04-30T11:10:33;102489.47;;;14.45;100.00
24788;BME280;12883;52.662;5.196;2023-04-30T11:13:03;102483.00;;;14.40;100.00
24788;BME280;12883;52.662;5.196;2023-04-30T11:15:38;102472.13;;;14.41;100.00
24788;BME280;12883;52.662;5.196;2023-04-30T11:18:06;102482.63;;;14.43;100.00
24788;BME280;12883;52.662;5.196;2023-04-30T11:20:32;102474.28;;;14.46;100.00
24788;BME280;12883;52.662;5.196;2023-04-30T11:23:14;102475.44;;;14.58;100.00
24788;BME280;12883;52.662;5.196;2023-04-30T11:28:06;102475.09;;;14.61;100.00
24788;BME280;12883;52.662;5.196;2023-04-30T11:30:32;102435.13;;;14.53;100.00
24788;BME280;12883;52.662;5.196;2023-04-30T11:32:59;102407.50;;;14.46;100.00
24788;BME280;12883;52.662;5.196;2023-04-30T11:35:24;102454.06;;;14.87;100.00
24788;BME280;12883;52.662;5.196;2023-04-30T11:37:53;102464.56;;;14.88;100.00
24788;BME280;12883;52.662;5.196;2023-04-30T11:40:19;102454.88;;;14.87;100.00
24788;BME280;12883;52.662;5.196;2023-04-30T11:42:46;102453.69;;;14.89;100.00
24788;BME280;12883;52.662;5.196;2023-04-30T11:45:14;102453.97;;;14.80;100.00
24788;BME280;12883;52.662;5.196;2023-04-30T11:47:51;102472.72;;;16.20;100.00
24788;BME280;12883;52.662;5.196;2023-04-30T11:50:19;102473.59;;;17.42;90.76
24788;BME280;12883;52.662;5.196;2023-04-30T11:52:51;102460.59;;;18.17;84.40
24788;BME280;12883;52.662;5.196;2023-04-30T11:55:20;102456.59;;;18.65;82.02
24788;BME280;12883;52.662;5.196;2023-04-30T11:57:49;102460.63;;;18.94;77.34
24788;BME280;12883;52.662;5.196;2023-04-30T12:00:17;102445.31;;;17.79;74.03
24788;BME280;12883;52.662;5.196;2023-04-30T12:02:45;102435.06;;;15.52;92.11
24788;BME280;12883;52.662;5.196;2023-04-30T12:05:15;102442.91;;;15.18;99.97
24788;BME280;12883;52.662;5.196;2023-04-30T12:07:53;102406.09;;;14.99;100.00
24788;BME280;12883;52.662;5.196;2023-04-30T12:10:19;102419.81;;;15.11;100.00
24788;BME280;12883;52.662;5.196;2023-04-30T12:12:46;102423.44;;;15.24;100.00
24788;BME280;12883;52.662;5.196;2023-04-30T12:15:18;102422.88;;;15.29;100.00
24788;BME280;12883;52.662;5.196;2023-04-30T12:17:45;102418.69;;;15.05;100.00
24788;BME280;12883;52.662;5.196;2023-04-30T12:20:14;102390.44;;;15.17;100.00
24788;BME280;12883;52.662;5.196;2023-04-30T12:22:43;102406.75;;;15.22;100.00
24788;BME280;12883;52.662;5.196;2023-04-30T12:25:14;102409.16;;;15.32;100.00
24788;BME280;12883;52.662;5.196;2023-04-30T12:27:48;102410.22;;;15.37;100.00
24788;BME280;12883;52.662;5.196;2023-04-30T12:30:14;102407.28;;;15.32;100.00
24788;BME280;12883;52.662;5.196;2023-04-30T12:32:42;102393.13;;;15.17;100.00
24788;BME280;12883;52.662;5.196;2023-04-30T12:35:12;102405.16;;;15.28;100.00
24788;BME280;12883;52.662;5.196;2023-04-30T12:37:41;102401.19;;;15.24;100.00
24788;BME280;12883;52.662;5.196;2023-04-30T12:40:07;102397.31;;;15.26;100.00
24788;BME280;12883;52.662;5.196;2023-04-30T12:42:34;102349.91;;;15.14;100.00
24788;BME280;12883;52.662;5.196;2023-04-30T12:45:00;102403.84;;;15.59;100.00
24788;BME280;12883;52.662;5.196;2023-04-30T12:47:26;102419.84;;;16.63;99.27
24788;BME280;12883;52.662;5.196;2023-04-30T12:49:51;102413.09;;;17.98;86.30
24788;BME280;12883;52.662;5.196;2023-04-30T12:52:22;102415.94;;;18.86;79.96
24788;BME280;12883;52.662;5.196;2023-04-30T12:54:48;102418.06;;;19.22;75.91
24788;BME280;12883;52.662;5.196;2023-04-30T12:57:13;102399.66;;;19.50;73.82
24788;BME280;12883;52.662;5.196;2023-04-30T12:59:59;102389.56;;;19.08;72.07
24788;BME280;12883;52.662;5.196;2023-04-30T13:02:27;102367.47;;;16.26;91.56
24788;BME280;12883;52.662;5.196;2023-04-30T13:04:52;102387.69;;;16.01;100.00